createdAt,value
2022-12-05T00:01:44.274Z,11.70
2022-12-05T00:06:47.680Z,10.53
2022-12-05T00:11:50.586Z,10.13
2022-12-05T00:16:53.524Z,10.10
2022-12-05T00:21:57.727Z,11.27
2022-12-05T00:27:00.596Z,10.80
2022-12-05T00:32:03.583Z,10.47
2022-12-05T00:37:06.584Z,10.10
2022-12-05T00:42:09.435Z,9.47
2022-12-05T00:47:12.358Z,8.93
2022-12-05T00:52:15.244Z,8.70
2022-12-05T00:57:18.190Z,8.07
2022-12-05T01:02:21.158Z,8.03
2022-12-05T01:07:24.052Z,9.03
2022-12-05T01:12:28.239Z,9.07
2022-12-05T01:17:31.259Z,9.20
2022-12-05T01:22:34.242Z,9.10
2022-12-05T01:27:37.371Z,8.03
2022-12-05T01:32:40.220Z,7.80
2022-12-05T01:37:43.204Z,7.67
2022-12-05T01:42:46.024Z,6.90
2022-12-05T01:47:48.976Z,7.03
2022-12-05T01:52:51.985Z,7.30
2022-12-05T01:57:57.798Z,6.77
2022-12-05T02:03:08.007Z,6.80
2022-12-05T02:08:13.132Z,6.67
2022-12-05T02:13:59.649Z,6.83
2022-12-05T02:19:32.845Z,6.77
2022-12-05T02:25:01.260Z,6.63
2022-12-05T02:30:10.727Z,6.57
2022-12-05T02:35:18.737Z,5.80
2022-12-05T02:40:43.261Z,6.83
2022-12-05T02:45:53.089Z,5.47
2022-12-05T02:51:00.734Z,5.63
2022-12-05T02:56:05.224Z,4.67
2022-12-05T03:01:08.838Z,5.33
2022-12-05T03:06:33.204Z,4.83
2022-12-05T03:11:47.897Z,4.20
2022-12-05T03:16:55.063Z,5.10
2022-12-05T03:22:15.320Z,4.53
2022-12-05T03:27:51.386Z,5.30
2022-12-05T03:33:08.017Z,4.93
2022-12-05T03:38:18.926Z,5.67
2022-12-05T03:43:46.067Z,5.22
2022-12-05T03:48:48.903Z,5.33
2022-12-05T03:54:13.983Z,5.70
2022-12-05T03:59:34.130Z,5.00
2022-12-05T04:04:49.330Z,4.87
2022-12-05T04:10:00.361Z,4.17
2022-12-05T04:15:22.616Z,4.93
2022-12-05T04:20:59.010Z,5.22
2022-12-05T04:26:23.980Z,4.07
2022-12-05T04:31:39.637Z,5.03
2022-12-05T04:36:55.794Z,5.70
2022-12-05T04:42:04.970Z,6.03
2022-12-05T04:47:12.204Z,6.10
2022-12-05T04:52:15.646Z,5.60
2022-12-05T04:57:26.541Z,6.17
2022-12-05T05:02:40.788Z,6.30
2022-12-05T05:07:54.136Z,11.03
2022-12-05T05:12:57.138Z,7.83
2022-12-05T05:18:00.072Z,18.27
2022-12-05T05:23:02.893Z,12.30
2022-12-05T05:28:05.708Z,13.33
2022-12-05T05:33:08.677Z,16.07
2022-12-05T05:38:11.600Z,10.47
2022-12-05T05:43:14.456Z,7.97
2022-12-05T05:48:17.329Z,10.30
2022-12-05T05:53:20.220Z,11.10
2022-12-05T05:58:23.583Z,8.93
2022-12-05T06:03:27.826Z,7.80
2022-12-05T06:08:33.396Z,7.27
2022-12-05T06:13:37.337Z,7.57
2022-12-05T06:18:40.581Z,7.70
2022-12-05T06:23:43.702Z,8.03
2022-12-05T06:28:47.021Z,8.30
2022-12-05T06:33:50.237Z,9.33
2022-12-05T06:38:53.051Z,8.47
2022-12-05T06:44:01.849Z,7.43
2022-12-05T06:49:05.555Z,8.60
2022-12-05T06:54:08.380Z,7.97
2022-12-05T06:59:11.309Z,8.13
2022-12-05T07:04:24.013Z,9.60
2022-12-05T07:09:46.017Z,8.63
2022-12-05T07:19:53.587Z,11.90
2022-12-05T07:24:56.556Z,10.63
2022-12-05T07:29:59.650Z,8.83
2022-12-05T07:35:02.726Z,9.63
2022-12-05T07:40:06.659Z,9.70
2022-12-05T07:45:10.418Z,9.47
2022-12-05T07:50:15.139Z,10.90
2022-12-05T07:55:18.116Z,9.97
2022-12-05T08:00:22.423Z,8.70
2022-12-05T08:05:25.341Z,9.03
2022-12-05T08:10:28.237Z,8.40
2022-12-05T08:15:35.765Z,10.23
2022-12-05T08:20:38.692Z,7.83
2022-12-05T08:25:41.680Z,9.20
2022-12-05T08:30:44.676Z,8.90
2022-12-05T08:35:47.661Z,9.60
2022-12-05T08:40:50.666Z,9.20
2022-12-05T08:45:54.095Z,8.97
2022-12-05T08:50:57.974Z,9.07
2022-12-05T08:56:06.429Z,8.53
2022-12-05T09:01:13.362Z,12.63
2022-12-05T09:06:16.307Z,10.07
2022-12-05T09:11:25.986Z,10.30
2022-12-05T09:16:37.999Z,9.33
2022-12-05T09:21:42.945Z,9.97
2022-12-05T09:26:46.501Z,32.90
2022-12-05T09:31:51.746Z,11.27
2022-12-05T09:37:10.210Z,10.17
2022-12-05T09:42:43.486Z,10.43
2022-12-05T09:48:12.546Z,9.37
2022-12-05T09:53:37.602Z,9.43
2022-12-05T09:58:48.781Z,9.43
2022-12-05T10:05:00.361Z,9.82
2022-12-05T10:10:28.726Z,8.73
2022-12-05T10:15:53.031Z,10.57
2022-12-05T10:21:38.729Z,10.80
2022-12-05T10:26:48.790Z,10.70
2022-12-05T10:31:57.750Z,11.30
2022-12-05T10:37:20.409Z,11.43
2022-12-05T10:42:31.631Z,11.03
2022-12-05T10:47:35.872Z,11.68
2022-12-05T10:52:38.805Z,11.20
2022-12-05T10:57:41.769Z,10.03
2022-12-05T11:02:50.259Z,10.07
2022-12-05T11:07:53.455Z,10.10
2022-12-05T11:13:00.858Z,9.63
2022-12-05T11:18:30.916Z,10.70
2022-12-05T11:23:33.862Z,9.47
2022-12-05T11:28:38.041Z,9.67
2022-12-05T11:33:41.800Z,9.17
2022-12-05T11:38:44.767Z,8.87
2022-12-05T11:44:14.726Z,10.50
2022-12-05T11:49:55.639Z,9.87
2022-12-05T11:55:12.470Z,10.33
2022-12-05T12:00:50.485Z,9.13
2022-12-05T12:05:56.356Z,9.80
2022-12-05T12:11:14.214Z,10.23
2022-12-05T12:17:01.808Z,11.33
2022-12-05T12:23:01.225Z,10.60
2022-12-05T12:28:22.503Z,10.93
2022-12-05T12:34:16.611Z,9.55
2022-12-05T12:40:03.472Z,10.23
2022-12-05T12:45:47.740Z,9.27
2022-12-05T12:50:54.824Z,8.77
2022-12-05T12:56:36.672Z,9.23
2022-12-05T13:02:12.785Z,10.17
2022-12-05T13:07:23.291Z,11.47
2022-12-05T13:12:32.665Z,10.63
2022-12-05T13:17:36.141Z,11.73
2022-12-05T13:22:39.199Z,32.67
2022-12-05T13:27:59.825Z,38.00
2022-12-05T13:33:10.224Z,14.27
2022-12-05T13:38:59.555Z,14.17
2022-12-05T13:44:12.501Z,15.43
2022-12-05T13:49:53.283Z,16.87
2022-12-05T13:55:14.535Z,13.20
2022-12-05T14:00:17.438Z,11.13
2022-12-05T14:05:25.603Z,10.40
2022-12-05T14:10:28.458Z,9.90
2022-12-05T14:15:39.474Z,12.03
2022-12-05T14:21:10.132Z,10.77
2022-12-05T14:26:39.789Z,10.33
2022-12-05T14:32:10.415Z,10.83
2022-12-05T14:37:16.295Z,11.50
2022-12-05T14:42:36.196Z,13.90
2022-12-05T14:47:39.138Z,14.70
2022-12-05T14:52:42.229Z,14.33
2022-12-05T14:57:49.196Z,13.90
2022-12-05T15:02:55.505Z,15.03
2022-12-05T15:08:00.830Z,11.50
2022-12-05T15:13:18.577Z,13.40
2022-12-05T15:18:45.830Z,11.80
2022-12-05T15:23:59.351Z,20.87
2022-12-05T15:29:08.096Z,17.50
2022-12-05T15:34:54.973Z,30.50
2022-12-05T15:40:08.209Z,13.70
2022-12-05T15:45:14.596Z,70.60
2022-12-05T15:50:53.158Z,32.43
2022-12-05T15:56:05.469Z,34.03
2022-12-05T16:01:25.797Z,20.50
2022-12-05T16:06:55.127Z,14.47
2022-12-05T16:12:17.147Z,14.67
2022-12-05T16:17:21.464Z,13.73
2022-12-05T16:22:28.678Z,12.33
2022-12-05T16:27:39.357Z,12.53
2022-12-05T16:32:45.151Z,14.13
2022-12-05T16:37:48.056Z,10.97
2022-12-05T16:43:06.443Z,11.97
2022-12-05T16:48:24.279Z,15.03
2022-12-05T16:53:35.148Z,14.43
2022-12-05T16:58:56.798Z,12.48
2022-12-05T17:03:59.915Z,14.63
2022-12-05T17:09:02.885Z,11.03
2022-12-05T17:14:07.507Z,14.63
2022-12-05T17:19:14.436Z,13.27
2022-12-05T17:24:18.901Z,11.77
2022-12-05T17:29:21.894Z,13.73
2022-12-05T17:34:24.720Z,13.53
2022-12-05T17:39:28.886Z,14.53
2022-12-05T17:44:31.966Z,14.03
2022-12-05T17:49:34.896Z,15.73
2022-12-05T17:54:37.867Z,14.30
2022-12-05T17:59:40.749Z,13.73
2022-12-05T18:04:43.710Z,13.97
2022-12-05T18:09:46.571Z,12.97
2022-12-05T18:14:49.421Z,13.07
2022-12-05T18:19:52.225Z,12.63
2022-12-05T18:24:57.330Z,12.43
2022-12-05T18:30:00.572Z,15.17
2022-12-05T18:35:08.680Z,17.20
2022-12-05T18:40:15.606Z,17.40
2022-12-05T18:45:18.433Z,14.57
2022-12-05T18:50:21.312Z,14.50
2022-12-05T18:55:44.987Z,27.17
2022-12-05T19:00:47.134Z,14.50
2022-12-05T19:05:50.131Z,15.23
2022-12-05T19:10:53.085Z,21.50
2022-12-05T19:16:03.948Z,23.23
2022-12-05T19:21:07.209Z,19.27
2022-12-05T19:26:10.723Z,22.40
2022-12-05T19:31:23.052Z,16.47
2022-12-05T19:36:30.206Z,18.50
2022-12-05T19:41:33.059Z,15.97
2022-12-05T19:46:36.602Z,16.20
2022-12-05T19:51:39.610Z,13.67
2022-12-05T19:56:42.583Z,13.07
2022-12-05T20:01:45.592Z,15.67
2022-12-05T20:06:50.013Z,16.07
2022-12-05T20:11:55.609Z,13.77
2022-12-05T20:17:00.330Z,20.10
2022-12-05T20:22:03.325Z,19.47
2022-12-05T20:27:07.400Z,18.43
2022-12-05T20:32:10.306Z,14.97
2022-12-05T20:37:13.240Z,14.67
2022-12-05T20:42:16.089Z,18.10
2022-12-05T20:47:19.062Z,16.60
2022-12-05T20:52:21.974Z,15.23
2022-12-05T20:57:24.747Z,16.83
2022-12-05T21:02:27.748Z,17.13
2022-12-05T21:07:30.642Z,18.57
2022-12-05T21:12:33.562Z,16.80
2022-12-05T21:17:36.396Z,20.33
2022-12-05T21:22:39.286Z,17.03
2022-12-05T21:27:42.100Z,16.87
2022-12-05T21:32:45.030Z,17.17
2022-12-05T21:37:47.875Z,16.97
2022-12-05T21:42:50.739Z,19.10
2022-12-05T21:47:53.904Z,17.83
2022-12-05T21:52:56.855Z,17.80
2022-12-05T21:57:59.736Z,18.57
2022-12-05T22:03:03.146Z,18.23
2022-12-05T22:08:06.787Z,16.57
2022-12-05T22:13:09.785Z,16.67
2022-12-05T22:18:12.465Z,19.03
2022-12-05T22:23:17.020Z,16.60
2022-12-05T22:28:20.396Z,16.60
2022-12-05T22:33:24.709Z,16.07
2022-12-05T22:38:32.560Z,16.80
2022-12-05T22:43:37.731Z,17.90
2022-12-05T22:48:40.952Z,17.93
2022-12-05T22:53:44.345Z,15.40
2022-12-05T22:58:47.978Z,15.00
2022-12-05T23:03:57.114Z,16.87
2022-12-05T23:09:01.290Z,14.50
2022-12-05T23:14:06.011Z,13.03
2022-12-05T23:19:08.905Z,14.50
2022-12-05T23:24:12.814Z,13.77
2022-12-05T23:29:15.735Z,15.60
2022-12-05T23:34:18.895Z,17.30
2022-12-05T23:39:21.780Z,17.20
2022-12-05T23:44:24.613Z,14.13
2022-12-05T23:49:27.623Z,13.47
2022-12-05T23:54:30.533Z,14.13
2022-12-05T23:59:33.263Z,13.27
